Elissa — WDD9058 — position and weather

sailwx.info

Track history (hours):
 
Tides and Currents Weather Stations Pressure Air Temp Water Temp Dewpoint Dewpoint Depression Visibility Wind Speed Wind Dir Waves Ship Positions

Elissa

Owner: Ingram Barge Company, Nashville, TN. More information available from US FCC via Universal Licensing System and Coast Guard Vessel Documentation Center.

Last reported at 2015-May-06 00:18 UTC. Time now 2015-May-06 11:27 UTC.
Position N 29°56' W 090°12'.

Length 26 m; draft 3.6 m.

Type: Towing. MMSI: 367306290.

Date/timePositionNaut miles runAvg speedWind from/ knotsBaromVisibWave heightAir tempDewpointWater temp
2015-May-06 00:18N 29°56' W 090°12'2 2.2
2015-May-05 23:28N 29°57' W 090°10'0 0.0
2015-May-05 22:24N 29°57' W 090°10'0 0.0
2015-May-05 21:29N 29°57' W 090°10'0 0.0
2015-May-05 20:29N 29°57' W 090°10'52 2.8
2015-May-05 02:07N 30°15' W 091°07'7 7.1
2015-May-05 01:07N 30°18' W 091°14'5 8.5
2015-May-05 00:33N 30°19' W 091°09'6 5.8
2015-May-04 23:34N 30°24' W 091°13'2 1.5
2015-May-04 22:34N 30°25' W 091°12'0 0.1
2015-May-04 21:33N 30°25' W 091°12'1 1.4
2015-May-04 20:30N 30°27' W 091°12'4 4.0
2015-May-04 19:34N 30°23' W 091°13'3 2.7
2015-May-04 18:22N 30°21' W 091°11'3 1.7
2015-May-04 16:33N 30°18' W 091°13'5 2.6
2015-May-04 14:30N 30°16' W 091°08'3 2.5
2015-May-04 13:20N 30°13' W 091°09'8 2.0
2015-May-04 09:11N 30°08' W 091°02'46 2.4
2015-May-03 14:15N 29°57' W 090°10'54 4.5
2015-May-03 02:23N 30°12' W 091°10'4 5.0
2015-May-03 01:33N 30°16' W 091°08'6 5.3
2015-May-03 00:31N 30°18' W 091°14'2 2.5
2015-May-02 23:33N 30°20' W 091°13'5 5.1
2015-May-02 22:33N 30°25' W 091°12'2 2.0
2015-May-02 21:33N 30°27' W 091°12'0 0.0
2015-May-02 20:33N 30°27' W 091°12'2 2.1
2015-May-02 19:33N 30°25' W 091°12'2 2.2
2015-May-02 18:33N 30°23' W 091°13'3 2.5
2015-May-02 17:32N 30°21' W 091°14'2 2.1
2015-May-02 16:31N 30°21' W 091°11'3 2.8
2015-May-02 15:32N 30°19' W 091°09'3 3.4
2015-May-02 14:31N 30°19' W 091°13'4 1.8
2015-May-02 12:10N 30°16' W 091°08'2 3.3
2015-May-02 11:32N 30°15' W 091°07'3 3.4
2015-May-02 10:32N 30°12' W 091°09'6 2.9
2015-May-02 08:19N 30°12' W 091°02'3 2.9
2015-May-02 07:13N 30°09' W 091°00'8 0.3
2015-May-01 07:25N 30°15' W 091°07'1 1.6
2015-May-01 06:31N 30°16' W 091°08'5 3.9
2015-May-01 05:20N 30°17' W 091°13'5 6.1
2015-May-01 04:33N 30°21' W 091°09'5 5.1
2015-May-01 03:33N 30°25' W 091°12'0 0.4
2015-May-01 02:33N 30°25' W 091°12'0 0.0
2015-May-01 01:33N 30°25' W 091°12'0 0.0
2015-May-01 00:33N 30°25' W 091°12'2 2.1
2015-Apr-30 23:33N 30°27' W 091°12'2 2.3
2015-Apr-30 22:34N 30°25' W 091°12'3 3.3
2015-Apr-30 21:34N 30°22' W 091°14'3 2.8
2015-Apr-30 20:30N 30°21' W 091°11'2 1.5
2015-Apr-30 19:09N 30°19' W 091°12'15 2.2
2015-Apr-30 12:28N 30°07' W 091°01'10 0.2
2015-Apr-28 16:19N 30°16' W 091°07'5 5.7
2015-Apr-28 15:30N 30°19' W 091°11'4 4.7
2015-Apr-28 14:33N 30°23' W 091°14'5 5.0
2015-Apr-28 13:33N 30°28' W 091°12'2 2.3
2015-Apr-28 12:33N 30°25' W 091°12'2 1.7
2015-Apr-28 11:33N 30°27' W 091°12'0 0.1
2015-Apr-28 10:33N 30°27' W 091°12'0 0.1
2015-Apr-28 09:33N 30°27' W 091°12'0 0.0
2015-Apr-28 08:34N 30°27' W 091°12'0 0.1
2015-Apr-28 07:33N 30°27' W 091°12'2 1.9
2015-Apr-28 06:33N 30°25' W 091°12'2 2.5
2015-Apr-28 05:33N 30°23' W 091°13'2 1.9
2015-Apr-28 04:32N 30°21' W 091°14'2 2.0
2015-Apr-28 03:32N 30°21' W 091°12'2 1.9
2015-Apr-28 02:33N 30°20' W 091°10'2 1.3
2015-Apr-28 01:22N 30°19' W 091°10'2 2.4
2015-Apr-28 00:33N 30°19' W 091°12'4 1.3
2015-Apr-27 21:20N 30°16' W 091°08'0 0.4
2015-Apr-27 20:03N 30°16' W 091°08'2 2.7
2015-Apr-27 19:26N 30°15' W 091°07'3 3.0
2015-Apr-27 18:30N 30°13' W 091°09'22 1.6
2015-Apr-27 04:28N 29°59' W 090°48'23 2.6
2015-Apr-26 19:30N 29°56' W 090°22'10 4.4
2015-Apr-26 17:11N 29°57' W 090°10'  
Track history (hours):
 
Tides and Currents Weather Stations Pressure Air Temp Water Temp Dewpoint Dewpoint Depression Visibility Wind Speed Wind Dir Waves Ship Positions

Elissa

Owner: Ingram Barge Company, Nashville, TN. More information available from US FCC via Universal Licensing System and Coast Guard Vessel Documentation Center.

Last reported at 2015-May-06 00:18 UTC. Time now 2015-May-06 11:27 UTC.
Position N 29°56' W 090°12'.

Length 26 m; draft 3.6 m.

Type: Towing. MMSI: 367306290.

Date/timePositionNaut miles runAvg speedWind from/ knotsBaromVisibWave heightAir tempDewpointWater temp
2015-May-06 00:18N 29°56' W 090°12'2 2.2
2015-May-05 23:28N 29°57' W 090°10'0 0.0
2015-May-05 22:24N 29°57' W 090°10'0 0.0
2015-May-05 21:29N 29°57' W 090°10'0 0.0
2015-May-05 20:29N 29°57' W 090°10'52 2.8
2015-May-05 02:07N 30°15' W 091°07'7 7.1
2015-May-05 01:07N 30°18' W 091°14'5 8.5
2015-May-05 00:33N 30°19' W 091°09'6 5.8
2015-May-04 23:34N 30°24' W 091°13'2 1.5
2015-May-04 22:34N 30°25' W 091°12'0 0.1
2015-May-04 21:33N 30°25' W 091°12'1 1.4
2015-May-04 20:30N 30°27' W 091°12'4 4.0
2015-May-04 19:34N 30°23' W 091°13'3 2.7
2015-May-04 18:22N 30°21' W 091°11'3 1.7
2015-May-04 16:33N 30°18' W 091°13'5 2.6
2015-May-04 14:30N 30°16' W 091°08'3 2.5
2015-May-04 13:20N 30°13' W 091°09'8 2.0
2015-May-04 09:11N 30°08' W 091°02'46 2.4
2015-May-03 14:15N 29°57' W 090°10'54 4.5
2015-May-03 02:23N 30°12' W 091°10'4 5.0
2015-May-03 01:33N 30°16' W 091°08'6 5.3
2015-May-03 00:31N 30°18' W 091°14'2 2.5
2015-May-02 23:33N 30°20' W 091°13'5 5.1
2015-May-02 22:33N 30°25' W 091°12'2 2.0
2015-May-02 21:33N 30°27' W 091°12'0 0.0
2015-May-02 20:33N 30°27' W 091°12'2 2.1
2015-May-02 19:33N 30°25' W 091°12'2 2.2
2015-May-02 18:33N 30°23' W 091°13'3 2.5
2015-May-02 17:32N 30°21' W 091°14'2 2.1
2015-May-02 16:31N 30°21' W 091°11'3 2.8
2015-May-02 15:32N 30°19' W 091°09'3 3.4
2015-May-02 14:31N 30°19' W 091°13'4 1.8
2015-May-02 12:10N 30°16' W 091°08'2 3.3
2015-May-02 11:32N 30°15' W 091°07'3 3.4
2015-May-02 10:32N 30°12' W 091°09'6 2.9
2015-May-02 08:19N 30°12' W 091°02'3 2.9
2015-May-02 07:13N 30°09' W 091°00'8 0.3
2015-May-01 07:25N 30°15' W 091°07'1 1.6
2015-May-01 06:31N 30°16' W 091°08'5 3.9
2015-May-01 05:20N 30°17' W 091°13'5 6.1
2015-May-01 04:33N 30°21' W 091°09'5 5.1
2015-May-01 03:33N 30°25' W 091°12'0 0.4
2015-May-01 02:33N 30°25' W 091°12'0 0.0
2015-May-01 01:33N 30°25' W 091°12'0 0.0
2015-May-01 00:33N 30°25' W 091°12'2 2.1
2015-Apr-30 23:33N 30°27' W 091°12'2 2.3
2015-Apr-30 22:34N 30°25' W 091°12'3 3.3
2015-Apr-30 21:34N 30°22' W 091°14'3 2.8
2015-Apr-30 20:30N 30°21' W 091°11'2 1.5
2015-Apr-30 19:09N 30°19' W 091°12'15 2.2
2015-Apr-30 12:28N 30°07' W 091°01'10 0.2
2015-Apr-28 16:19N 30°16' W 091°07'5 5.7
2015-Apr-28 15:30N 30°19' W 091°11'4 4.7
2015-Apr-28 14:33N 30°23' W 091°14'5 5.0
2015-Apr-28 13:33N 30°28' W 091°12'2 2.3
2015-Apr-28 12:33N 30°25' W 091°12'2 1.7
2015-Apr-28 11:33N 30°27' W 091°12'0 0.1
2015-Apr-28 10:33N 30°27' W 091°12'0 0.1
2015-Apr-28 09:33N 30°27' W 091°12'0 0.0
2015-Apr-28 08:34N 30°27' W 091°12'0 0.1
2015-Apr-28 07:33N 30°27' W 091°12'2 1.9
2015-Apr-28 06:33N 30°25' W 091°12'2 2.5
2015-Apr-28 05:33N 30°23' W 091°13'2 1.9
2015-Apr-28 04:32N 30°21' W 091°14'2 2.0
2015-Apr-28 03:32N 30°21' W 091°12'2 1.9
2015-Apr-28 02:33N 30°20' W 091°10'2 1.3
2015-Apr-28 01:22N 30°19' W 091°10'2 2.4
2015-Apr-28 00:33N 30°19' W 091°12'4 1.3
2015-Apr-27 21:20N 30°16' W 091°08'0 0.4
2015-Apr-27 20:03N 30°16' W 091°08'2 2.7
2015-Apr-27 19:26N 30°15' W 091°07'3 3.0
2015-Apr-27 18:30N 30°13' W 091°09'22 1.6
2015-Apr-27 04:28N 29°59' W 090°48'23 2.6
2015-Apr-26 19:30N 29°56' W 090°22'10 4.4
2015-Apr-26 17:11N 29°57' W 090°10'  

Dump ship's entire track history